EW6077 Weather Reports


Display with metric or nautical units.
time (UTC)temp
F
wind
direction
speed
MPH
gust
MPH
rain 1hr
in
rain 24hr
in
rain mn
in
humidity
%
barometer
mb
20171124124826 35 293 8.0 0.0 0.00 0.00 0.00 91 996.1
20171124123321 35 292 8.0 0.0 0.00 0.00 0.00 91 996.0
20171124121814 35 284 8.0 0.0 0.00 0.00 0.00 91 995.7
20171124120315 36 296 7.0 0.0 0.00 0.00 0.00 91 995.4
20171124114812 36 289 8.0 0.0 0.00 0.00 0.00 91 994.8
20171124113311 36 282 7.0 0.0 0.00 0.00 0.00 91 994.6
20171124111813 37 332 9.0 0.0 0.00 0.00 0.00 90 994.4
20171124110307 37 298 8.0 0.0 0.00 0.00 0.00 91 994.3
20171124104807 36 273 7.0 0.0 0.00 0.00 0.00 92 994.2
20171124103309 36 298 6.0 0.0 0.00 0.00 0.00 92 993.8
20171124101800 35 294 5.0 0.0 0.00 0.00 0.00 93 993.6
20171124100301 35 292 5.0 0.0 0.00 0.00 0.00 93 993.4
20171124094759 35 315 5.0 0.0 0.00 0.00 0.00 92 993.4
20171124093257 35 302 6.0 0.0 0.00 0.00 0.00 92 993.5
20171124091807 36 281 6.0 0.0 0.00 0.00 0.00 91 993.7
20171124090254 36 292 6.0 0.0 0.00 0.00 0.00 91 994.0
20171124084758 35 300 7.0 0.0 0.00 0.00 0.00 91 994.1
20171124083307 35 304 6.0 0.0 0.00 0.00 0.00 91 993.8
20171124081758 35 292 6.0 0.0 0.00 0.00 0.00 91 993.4
20171124080323 35 267 5.0 0.0 0.00 0.00 0.00 91 994.0
20171124074755 36 284 6.0 0.0 0.00 0.00 0.00 91 993.5
20171124073250 36 274 6.0 0.0 0.00 0.00 0.00 90 992.9
20171124071751 36 325 7.0 0.0 0.00 0.00 0.00 90 993.9
20171124070242 36 288 7.0 0.0 0.00 0.00 0.00 90 993.1
20171124064743 37 327 6.0 0.0 0.00 0.00 0.00 90 992.8
20171124063236 37 289 8.0 0.0 0.00 0.00 0.00 89 992.7
20171124061800 38 290 8.0 0.0 0.00 0.00 0.00 89 993.2
20171124060228 38 284 5.0 0.0 0.00 0.00 0.00 90 992.9
20171124054739 38 264 5.0 0.0 0.00 0.00 0.00 89 992.4
20171124053234 38 257 5.0 0.0 0.00 0.00 0.00 89 992.4
20171124051727 38 259 5.0 0.0 0.00 0.00 0.00 88 992.6
20171124050232 39 292 6.0 0.0 0.00 0.00 0.00 88 993.0
20171124044726 39 285 6.0 0.0 0.00 0.00 0.00 87 992.7
20171124043224 40 275 5.0 0.0 0.00 0.00 0.00 87 992.6
20171124041724 40 279 5.0 0.0 0.00 0.00 0.00 85 992.7
20171124040228 41 284 6.0 0.0 0.00 0.00 0.00 84 992.7
20171124034725 42 269 7.0 0.0 0.00 0.00 0.00 84 992.9
20171124033234 43 304 6.0 0.0 0.00 0.00 0.00 82 993.1
20171124031828 44 284 7.0 0.0 0.00 0.00 0.00 81 993.3
20171124030237 44 277 7.0 0.0 0.00 0.00 0.00 79 993.4
20171124024725 43 287 6.0 0.0 0.00 0.00 0.00 80 993.6
20171124023219 44 299 7.0 0.0 0.00 0.00 0.00 78 993.6
20171124021718 45 314 7.0 0.0 0.00 0.00 0.00 76 993.7
20171124020220 48 268 9.0 0.0 0.00 0.00 0.00 71 993.3
20171124014722 49 287 9.0 0.0 0.00 0.00 0.00 70 993.2
20171124013216 49 261 9.0 0.0 0.00 0.00 0.00 70 993.4
20171124011729 48 255 7.0 0.0 0.00 0.00 0.00 71 993.4
20171124010217 49 240 9.0 0.0 0.00 0.00 0.00 70 993.6
20171124004715 48 236 7.0 0.0 0.00 0.00 0.00 71 994.1
20171124003217 47 226 7.0 0.0 0.00 0.00 0.00 73 994.4
20171124001716 47 229 6.0 0.0 0.00 0.00 0.00 73 994.4
20171124000206 47 248 7.0 0.0 0.00 0.00 0.00 73 994.7
20171123234715 47 217 7.0 0.0 0.00 0.00 0.00 73 994.5
20171123233205 47 236 7.0 0.0 0.00 0.00 0.00 73 994.9
20171123231706 48 260 7.0 0.0 0.00 0.00 0.00 72 995.1
20171123230202 49 255 7.0 0.0 0.00 0.00 0.00 72 995.3
20171123224700 48 270 6.0 0.0 0.00 0.00 0.00 74 995.6
20171123223215 45 250 3.0 0.0 0.00 0.00 0.00 78 995.7
20171123221650 42 171 1.0 0.0 0.00 0.00 0.00 76 996.1
20171123220155 41 171 2.0 0.0 0.00 0.00 0.00 77 996.2
20171123214649 42 171 1.0 0.0 0.00 0.00 0.00 75 996.6
20171123213157 41 171 0.0 0.0 0.00 0.00 0.00 76 997.1
20171123211655 40 171 3.0 0.0 0.00 0.00 0.00 77 997.3
20171123210137 39 171 4.0 0.0 0.00 0.00 0.00 78 997.6
20171123204632 39 157 3.0 0.0 0.00 0.00 0.00 79 998.2
20171123203144 37 163 4.0 0.0 0.00 0.00 0.00 81 998.3
20171123201646 36 165 5.0 0.0 0.00 0.00 0.00 82 998.7
20171123200122 35 159 6.0 0.0 0.00 0.00 0.00 82 999.3
20171123194618 34 159 5.0 0.0 0.00 0.00 0.00 84 999.8
20171123193120 33 169 5.0 0.0 0.00 0.00 0.00 86 1000.3
20171123191617 31 169 4.0 0.0 0.00 0.00 0.00 87 1000.7
20171123190122 30 159 5.0 0.0 0.00 0.00 0.00 90 1001.2
20171123184605 28 162 5.0 0.0 0.00 0.00 0.00 92 1001.6
20171123183057 27 159 4.0 0.0 0.00 0.00 0.00 93 1002.4
20171123181622 26 148 4.0 0.0 0.00 0.00 0.00 93 1002.5
20171123180051 25 175 5.0 0.0 0.00 0.00 0.00 93 1003.0
20171123174609 24 163 6.0 0.0 0.00 0.00 0.00 93 1003.5
20171123173055 23 140 7.0 0.0 0.00 0.00 0.00 93 1003.6
20171123171551 23 132 6.0 0.0 0.00 0.00 0.00 93 1004.4
20171123170050 22 153 6.0 0.0 0.00 0.00 0.00 93 1004.7
20171123164541 22 158 6.0 0.0 0.00 0.00 0.00 93 1005.2
20171123163038 21 111 5.0 0.0 0.00 0.00 0.00 93 1005.1
20171123161528 20 117 6.0 0.0 0.00 0.00 0.00 93 1005.5
20171123160023 19 112 6.0 0.0 0.00 0.00 0.00 93 1005.6
20171123154535 18 95 6.0 0.0 0.00 0.00 0.00 92 1006.1
20171123153015 17 105 3.0 0.0 0.00 0.00 0.00 92 1006.5
20171123151514 16 96 4.0 0.0 0.00 0.00 0.00 92 1006.7
20171123150007 16 121 2.0 0.0 0.00 0.00 0.00 92 1007.3
20171123144508 15 112 1.0 0.0 0.00 0.00 0.00 92 1007.3
20171123143015 16 132 0.0 0.0 0.00 0.00 0.00 92 1007.4
20171123141513 15 132 2.0 0.0 0.00 0.00 0.00 92 1007.3
20171123140010 15 168 2.0 0.0 0.00 0.00 0.00 92 1007.6
20171123134506 15 179 3.0 0.0 0.00 0.00 0.00 91 1007.8
20171123133000 16 115 1.0 0.0 0.00 0.00 0.00 92 1008.1
20171123131459 16 115 2.0 0.0 0.00 0.00 0.00 92 1008.1